Time,TemperatureF,DewpointF,PressureIn,WindDirection,WindDirectionDegrees,WindSpeedMPH,WindSpeedGustMPH,Humidity,HourlyPrecipIn,Conditions,Clouds,dailyrainin,SoftwareType,DateUTC
2013-01-18 00:03:00,55.0,46.0,30.10,West,278,14.0,23.0,69,-99.99,,,-99.99,,2013-01-18 05:03:00,
2013-01-18 00:12:00,55.0,46.0,30.11,WNW,291,15.0,30.0,71,-99.99,,,-99.99,,2013-01-18 05:12:00,
2013-01-18 00:22:00,55.0,46.0,30.11,WNW,291,15.0,30.0,71,-99.99,,,-99.99,,2013-01-18 05:22:00,
2013-01-18 00:33:00,55.0,46.0,30.11,WNW,291,17.0,25.0,72,-99.99,,,-99.99,,2013-01-18 05:33:00,
2013-01-18 00:42:00,54.0,45.0,30.11,WNW,292,18.0,30.0,72,-99.99,,,-99.99,,2013-01-18 05:42:00,
2013-01-18 00:53:00,53.0,45.0,30.11,WNW,292,14.0,23.0,73,-99.99,,,-99.99,,2013-01-18 05:53:00,
2013-01-18 01:02:00,53.0,45.0,30.11,WNW,292,14.0,23.0,73,-99.99,,,-99.99,,2013-01-18 06:02:00,
2013-01-18 01:12:00,53.0,45.0,30.12,WNW,301,13.0,21.0,74,-99.99,,,-99.99,,2013-01-18 06:12:00,
2013-01-18 01:22:00,53.0,45.0,30.12,NW,310,16.0,22.0,75,-99.99,,,-99.99,,2013-01-18 06:22:00,
2013-01-18 01:33:00,53.0,45.0,30.12,NW,310,16.0,22.0,75,-99.99,,,-99.99,,2013-01-18 06:33:00,
2013-01-18 01:43:00,53.0,45.0,30.12,NW,313,19.0,27.0,75,-99.99,,,-99.99,,2013-01-18 06:43:00,
2013-01-18 01:53:00,53.0,45.0,30.12,NW,313,19.0,27.0,75,-99.99,,,-99.99,,2013-01-18 06:53:00,
2013-01-18 02:02:00,53.0,45.0,30.12,NW,311,21.0,28.0,75,-99.99,,,-99.99,,2013-01-18 07:02:00,
2013-01-18 02:12:00,51.0,44.0,30.13,NW,304,20.0,27.0,75,-99.99,,,-99.99,,2013-01-18 07:12:00,
2013-01-18 02:22:00,51.0,44.0,30.13,NW,304,20.0,27.0,75,-99.99,,,-99.99,,2013-01-18 07:22:00,
2013-01-18 02:32:00,51.0,43.0,30.13,NW,305,19.0,25.0,74,-99.99,,,-99.99,,2013-01-18 07:32:00,
2013-01-18 02:42:00,51.0,43.0,30.14,NW,311,17.0,25.0,75,-99.99,,,-99.99,,2013-01-18 07:42:00,
2013-01-18 02:52:00,51.0,43.0,30.14,NW,311,17.0,25.0,75,-99.99,,,-99.99,,2013-01-18 07:52:00,
2013-01-18 03:02:00,50.0,43.0,30.15,NNW,331,22.0,28.0,76,-99.99,,,-99.99,,2013-01-18 08:02:00,
2013-01-18 03:12:00,50.0,43.0,30.15,NNW,331,22.0,28.0,76,-99.99,,,-99.99,,2013-01-18 08:12:00,
2013-01-18 03:22:00,49.0,42.0,30.15,NNW,335,22.0,32.0,76,-99.99,,,-99.99,,2013-01-18 08:22:00,
2013-01-18 03:32:00,49.0,42.0,30.15,NNW,335,22.0,32.0,76,-99.99,,,-99.99,,2013-01-18 08:32:00,
2013-01-18 03:42:00,47.0,40.0,30.16,NNW,332,19.0,26.0,76,-99.99,,,-99.99,,2013-01-18 08:42:00,
2013-01-18 03:53:00,47.0,40.0,30.16,NNW,332,19.0,26.0,76,-99.99,,,-99.99,,2013-01-18 08:53:00,
2013-01-18 04:03:00,46.0,39.0,30.16,NW,326,19.0,28.0,75,-99.99,,,-99.99,,2013-01-18 09:03:00,
2013-01-18 04:12:00,46.0,39.0,30.16,NW,326,19.0,28.0,75,-99.99,,,-99.99,,2013-01-18 09:12:00,
2013-01-18 04:22:00,46.0,39.0,30.16,NW,326,19.0,28.0,75,-99.99,,,-99.99,,2013-01-18 09:22:00,
2013-01-18 04:33:00,46.0,40.0,30.17,NNW,329,16.0,23.0,78,-99.99,,,-99.99,,2013-01-18 09:33:00,
2013-01-18 04:43:00,46.0,40.0,30.18,NW,313,15.0,22.0,79,-99.99,,,-99.99,,2013-01-18 09:43:00,
2013-01-18 04:53:00,46.0,40.0,30.18,NW,313,15.0,22.0,79,-99.99,,,-99.99,,2013-01-18 09:53:00,
2013-01-18 05:03:00,46.0,39.0,30.18,SSE,163,17.0,24.0,78,-99.99,,,-99.99,,2013-01-18 10:03:00,
2013-01-18 05:12:00,46.0,39.0,30.18,SSE,163,17.0,24.0,78,-99.99,,,-99.99,,2013-01-18 10:12:00,
2013-01-18 05:22:00,46.0,39.0,30.18,SSE,163,17.0,24.0,78,-99.99,,,-99.99,,2013-01-18 10:22:00,
2013-01-18 05:32:00,45.0,39.0,30.18,SSE,151,19.0,28.0,78,-99.99,,,-99.99,,2013-01-18 10:32:00,
2013-01-18 05:43:00,45.0,38.0,30.19,WSW,240,23.0,30.0,76,-99.99,,,-99.99,,2013-01-18 10:43:00,
2013-01-18 05:53:00,45.0,38.0,30.19,WSW,240,23.0,30.0,76,-99.99,,,-99.99,,2013-01-18 10:53:00,
2013-01-18 06:02:00,44.0,37.0,30.20,West,270,22.0,27.0,76,-99.99,,,-99.99,,2013-01-18 11:02:00,
2013-01-18 06:12:00,44.0,37.0,30.20,SSE,152,20.0,28.0,76,-99.99,,,-99.99,,2013-01-18 11:12:00,
2013-01-18 06:23:00,44.0,37.0,30.20,SSE,152,20.0,28.0,76,-99.99,,,-99.99,,2013-01-18 11:23:00,
2013-01-18 06:32:00,44.0,37.0,30.20,SSE,152,20.0,28.0,76,-99.99,,,-99.99,,2013-01-18 11:32:00,
2013-01-18 06:42:00,43.0,37.0,30.22,South,183,17.0,23.0,77,-99.99,,,-99.99,,2013-01-18 11:42:00,
2013-01-18 06:53:00,43.0,37.0,30.22,South,183,17.0,23.0,77,-99.99,,,-99.99,,2013-01-18 11:53:00,
2013-01-18 07:03:00,43.0,37.0,30.22,West,262,17.0,24.0,77,-99.99,,,-99.99,,2013-01-18 12:03:00,
2013-01-18 07:12:00,44.0,37.0,30.23,WNW,297,17.0,22.0,77,-99.99,,,-99.99,,2013-01-18 12:12:00,
2013-01-18 07:23:00,44.0,37.0,30.23,WNW,297,17.0,22.0,77,-99.99,,,-99.99,,2013-01-18 12:23:00,
2013-01-18 07:33:00,44.0,37.0,30.23,WNW,297,17.0,22.0,77,-99.99,,,-99.99,,2013-01-18 12:33:00,
2013-01-18 07:43:00,44.0,37.0,30.23,WNW,297,17.0,22.0,77,-99.99,,,-99.99,,2013-01-18 12:43:00,
2013-01-18 08:00:00,44.0,38.0,30.24,NNW,339,13.0,18.0,78,-99.99,,,-99.99,,2013-01-18 13:00:00,
2013-01-18 08:43:00,44.0,38.0,30.24,NNW,339,13.0,18.0,78,-99.99,,,-99.99,,2013-01-18 13:43:00,
2013-01-18 08:53:00,44.0,38.0,30.24,NNW,339,13.0,18.0,78,-99.99,,,-99.99,,2013-01-18 13:53:00,
2013-01-18 11:03:00,50.0,42.0,30.28,NNW,343,13.0,18.0,74,-99.99,,,-99.99,,2013-01-18 16:03:00,
2013-01-18 11:13:00,51.0,43.0,30.27,WNW,291,12.0,17.0,74,-99.99,,,-99.99,,2013-01-18 16:13:00,
2013-01-18 11:23:00,51.0,43.0,30.27,NNW,345,13.0,15.0,73,-99.99,,,-99.99,,2013-01-18 16:23:00,
2013-01-18 11:33:00,51.0,43.0,30.27,NNW,345,13.0,15.0,73,-99.99,,,-99.99,,2013-01-18 16:33:00,
2013-01-18 11:43:00,52.0,44.0,30.27,NNW,338,14.0,20.0,73,-99.99,,,-99.99,,2013-01-18 16:43:00,
2013-01-18 11:53:00,53.0,45.0,30.26,NNW,334,14.0,18.0,74,-99.99,,,-99.99,,2013-01-18 16:53:00,
2013-01-18 12:03:00,53.0,45.0,30.26,NNW,334,14.0,18.0,74,-99.99,,,-99.99,,2013-01-18 17:03:00,
2013-01-18 12:13:00,53.0,45.0,30.26,NNW,341,14.0,17.0,74,-99.99,,,-99.99,,2013-01-18 17:13:00,
2013-01-18 12:23:00,53.0,45.0,30.26,NNW,341,14.0,17.0,74,-99.99,,,-99.99,,2013-01-18 17:23:00,
2013-01-18 12:33:00,53.0,45.0,30.25,NNW,344,13.0,17.0,73,-99.99,,,-99.99,,2013-01-18 17:33:00,
2013-01-18 12:43:00,54.0,46.0,30.25,NNW,332,10.0,13.0,71,-99.99,,,-99.99,,2013-01-18 17:43:00,
2013-01-18 12:53:00,56.0,47.0,30.24,West,273,9.0,13.0,71,-99.99,,,-99.99,,2013-01-18 17:53:00,
2013-01-18 13:03:00,56.0,47.0,30.24,West,273,9.0,13.0,71,-99.99,,,-99.99,,2013-01-18 18:03:00,
2013-01-18 13:13:00,56.0,48.0,30.23,SW,230,8.0,11.0,71,-99.99,,,-99.99,,2013-01-18 18:13:00,
2013-01-18 13:23:00,56.0,48.0,30.23,SW,230,8.0,11.0,71,-99.99,,,-99.99,,2013-01-18 18:23:00,
2013-01-18 13:33:00,59.0,49.0,30.22,SE,135,12.0,16.0,69,-99.99,,,-99.99,,2013-01-18 18:33:00,
2013-01-18 13:43:00,60.0,50.0,30.22,ENE,60,12.0,16.0,69,-99.99,,,-99.99,,2013-01-18 18:43:00,
2013-01-18 13:53:00,61.0,51.0,30.21,West,259,8.0,13.0,69,-99.99,,,-99.99,,2013-01-18 18:53:00,
2013-01-18 14:03:00,61.0,51.0,30.21,West,259,8.0,13.0,69,-99.99,,,-99.99,,2013-01-18 19:03:00,
2013-01-18 14:13:00,62.0,52.0,30.21,ENE,65,11.0,17.0,70,-99.99,,,-99.99,,2013-01-18 19:13:00,
2013-01-18 14:23:00,62.0,52.0,30.21,ENE,65,11.0,17.0,70,-99.99,,,-99.99,,2013-01-18 19:23:00,
2013-01-18 14:33:00,61.0,53.0,30.21,NNE,32,9.0,14.0,73,-99.99,,,-99.99,,2013-01-18 19:33:00,
2013-01-18 14:43:00,60.0,54.0,30.21,NNE,23,14.0,18.0,79,-99.99,,,-99.99,,2013-01-18 19:43:00,
2013-01-18 14:53:00,61.0,56.0,30.20,ENE,76,9.0,13.0,81,-99.99,,,-99.99,,2013-01-18 19:53:00,
2013-01-18 15:03:00,61.0,56.0,30.20,ENE,76,9.0,13.0,81,-99.99,,,-99.99,,2013-01-18 20:03:00,
2013-01-18 15:13:00,61.0,56.0,30.20,SSW,202,13.0,30.0,83,-99.99,,,-99.99,,2013-01-18 20:13:00,
2013-01-18 15:23:00,61.0,56.0,30.20,SSW,202,13.0,30.0,83,-99.99,,,-99.99,,2013-01-18 20:23:00,
2013-01-18 15:33:00,62.0,57.0,30.20,NE,40,21.0,30.0,82,-99.99,,,-99.99,,2013-01-18 20:33:00,
2013-01-18 15:43:00,63.0,56.0,30.19,NE,46,26.0,37.0,78,-99.99,,,-99.99,,2013-01-18 20:43:00,
2013-01-18 15:53:00,62.0,57.0,30.20,NE,40,24.0,30.0,81,-99.99,,,-99.99,,2013-01-18 20:53:00,
2013-01-18 16:03:00,62.0,57.0,30.20,NE,40,24.0,30.0,81,-99.99,,,-99.99,,2013-01-18 21:03:00,
2013-01-18 16:13:00,62.0,57.0,30.20,NE,37,21.0,30.0,82,-99.99,,,-99.99,,2013-01-18 21:13:00,
2013-01-18 16:23:00,62.0,57.0,30.20,NE,37,21.0,30.0,82,-99.99,,,-99.99,,2013-01-18 21:23:00,
2013-01-18 16:33:00,62.0,57.0,30.21,NE,45,20.0,30.0,82,-99.99,,,-99.99,,2013-01-18 21:33:00,
2013-01-18 16:43:00,61.0,58.0,30.22,ENE,59,10.0,14.0,88,-99.99,,,-99.99,,2013-01-18 21:43:00,
2013-01-18 16:53:00,61.0,58.0,30.23,NE,55,9.0,14.0,89,-99.99,,,-99.99,,2013-01-18 21:53:00,
2013-01-18 17:03:00,61.0,58.0,30.23,NE,55,9.0,14.0,89,-99.99,,,-99.99,,2013-01-18 22:03:00,
2013-01-18 17:12:00,61.0,58.0,30.23,NE,54,8.0,13.0,89,-99.99,,,-99.99,,2013-01-18 22:12:00,
2013-01-18 17:23:00,61.0,58.0,30.23,NE,54,8.0,13.0,89,-99.99,,,-99.99,,2013-01-18 22:23:00,
2013-01-18 17:33:00,61.0,58.0,30.23,NE,54,9.0,15.0,88,-99.99,,,-99.99,,2013-01-18 22:33:00,
2013-01-18 17:43:00,62.0,57.0,30.24,NE,48,12.0,19.0,85,-99.99,,,-99.99,,2013-01-18 22:43:00,
2013-01-18 17:53:00,61.0,58.0,30.24,NE,45,10.0,14.0,88,-99.99,,,-99.99,,2013-01-18 22:53:00,
2013-01-18 18:03:00,61.0,58.0,30.24,NE,45,10.0,14.0,88,-99.99,,,-99.99,,2013-01-18 23:03:00,
2013-01-18 18:12:00,61.0,58.0,30.24,NE,44,10.0,16.0,90,-99.99,,,-99.99,,2013-01-18 23:12:00,
2013-01-18 18:23:00,61.0,58.0,30.24,NE,44,10.0,16.0,90,-99.99,,,-99.99,,2013-01-18 23:23:00,
2013-01-18 18:33:00,61.0,58.0,30.24,NE,45,9.0,12.0,89,-99.99,,,-99.99,,2013-01-18 23:33:00,
2013-01-18 18:43:00,61.0,58.0,30.25,NE,41,9.0,12.0,89,-99.99,,,-99.99,,2013-01-18 23:43:00,
2013-01-18 18:53:00,60.0,58.0,30.24,NE,49,8.0,11.0,92,-99.99,,,-99.99,,2013-01-18 23:53:00,
2013-01-18 19:03:00,60.0,58.0,30.24,NE,49,8.0,11.0,92,-99.99,,,-99.99,,2013-01-19 00:03:00,
2013-01-18 19:13:00,60.0,58.0,30.25,NNE,33,9.0,13.0,93,-99.99,,,-99.99,,2013-01-19 00:13:00,
2013-01-18 19:23:00,60.0,58.0,30.25,NNE,33,9.0,13.0,93,-99.99,,,-99.99,,2013-01-19 00:23:00,
2013-01-18 19:33:00,60.0,58.0,30.25,NE,46,8.0,12.0,92,-99.99,,,-99.99,,2013-01-19 00:33:00,
2013-01-18 19:43:00,60.0,58.0,30.26,NNE,25,11.0,15.0,91,-99.99,,,-99.99,,2013-01-19 00:43:00,
2013-01-18 19:53:00,61.0,58.0,30.26,NNE,23,10.0,14.0,89,-99.99,,,-99.99,,2013-01-19 00:53:00,
2013-01-18 20:03:00,61.0,58.0,30.26,NNE,23,10.0,14.0,89,-99.99,,,-99.99,,2013-01-19 01:03:00,
2013-01-18 20:12:00,61.0,58.0,30.26,NNE,25,10.0,14.0,89,-99.99,,,-99.99,,2013-01-19 01:12:00,
2013-01-18 20:23:00,61.0,58.0,30.26,NNE,25,10.0,14.0,89,-99.99,,,-99.99,,2013-01-19 01:23:00,
2013-01-18 20:33:00,61.0,58.0,30.26,NNE,23,11.0,16.0,88,-99.99,,,-99.99,,2013-01-19 01:33:00,
2013-01-18 20:43:00,61.0,57.0,30.26,NNE,28,13.0,16.0,87,-99.99,,,-99.99,,2013-01-19 01:43:00,
2013-01-18 20:53:00,61.0,57.0,30.25,NNE,26,12.0,17.0,87,-99.99,,,-99.99,,2013-01-19 01:53:00,
2013-01-18 21:03:00,61.0,57.0,30.25,NNE,26,12.0,17.0,87,-99.99,,,-99.99,,2013-01-19 02:03:00,
2013-01-18 21:12:00,61.0,57.0,30.25,NNE,26,11.0,15.0,89,-99.99,,,-99.99,,2013-01-19 02:12:00,
2013-01-18 21:23:00,61.0,57.0,30.25,NNE,26,11.0,15.0,89,-99.99,,,-99.99,,2013-01-19 02:23:00,
2013-01-18 21:33:00,60.0,57.0,30.25,NNE,21,11.0,15.0,88,-99.99,,,-99.99,,2013-01-19 02:33:00,
2013-01-18 21:43:00,60.0,57.0,30.26,NNE,27,10.0,14.0,88,-99.99,,,-99.99,,2013-01-19 02:43:00,
2013-01-18 21:53:00,60.0,57.0,30.26,NNE,24,11.0,13.0,88,-99.99,,,-99.99,,2013-01-19 02:53:00,
2013-01-18 22:03:00,60.0,57.0,30.26,NNE,24,11.0,13.0,88,-99.99,,,-99.99,,2013-01-19 03:03:00,
2013-01-18 22:12:00,60.0,57.0,30.26,NNE,21,11.0,16.0,88,-99.99,,,-99.99,,2013-01-19 03:12:00,
2013-01-18 22:23:00,60.0,57.0,30.26,NNE,21,11.0,16.0,88,-99.99,,,-99.99,,2013-01-19 03:23:00,
2013-01-18 22:33:00,61.0,57.0,30.26,NNE,31,13.0,17.0,87,-99.99,,,-99.99,,2013-01-19 03:33:00,
2013-01-18 22:43:00,61.0,57.0,30.25,NNE,24,12.0,17.0,86,-99.99,,,-99.99,,2013-01-19 03:43:00,
2013-01-18 22:53:00,61.0,57.0,30.25,NNE,23,11.0,15.0,86,-99.99,,,-99.99,,2013-01-19 03:53:00,
2013-01-18 23:02:00,61.0,57.0,30.25,NNE,23,11.0,15.0,86,-99.99,,,-99.99,,2013-01-19 04:02:00,
2013-01-18 23:12:00,60.0,57.0,30.26,NNE,21,10.0,13.0,87,-99.99,,,-99.99,,2013-01-19 04:12:00,
2013-01-18 23:22:00,60.0,57.0,30.26,NNE,21,10.0,13.0,87,-99.99,,,-99.99,,2013-01-19 04:22:00,
2013-01-18 23:33:00,61.0,57.0,30.25,NNE,26,9.0,12.0,87,-99.99,,,-99.99,,2013-01-19 04:33:00,
2013-01-18 23:42:00,61.0,57.0,30.24,NNE,29,10.0,12.0,86,-99.99,,,-99.99,,2013-01-19 04:42:00,
2013-01-18 23:53:00,61.0,57.0,30.24,ESE,103,9.0,10.0,87,-99.99,,,-99.99,,2013-01-19 04:53:00,